Time;durP1;ratioP1;P1;durP2;ratioP2;P2;SDS_P1;SDS_P2;PMS_P1;PMS_P2;Temp;Humidity;BMP_temperature;BMP_pressure;BME280_temperature;BME280_humidity;BME280_pressure;Samples;Min_cycle;Max_cycle;Signal;HPM_P1;HPM_P2
2023/07/09 00:01:58;;;;;;;0.00;0.00;;;;;;;30.33;43.69;101772.19;5013057;28;20045;-62
2023/07/09 00:04:24;;;;;;;0.00;0.00;;;;;;;30.42;44.58;101775.69;5012779;28;20042;-62
2023/07/09 00:06:50;;;;;;;0.00;0.00;;;;;;;30.58;44.19;101774.78;4996632;28;20033;-62
2023/07/09 00:09:18;;;;;;;0.00;0.00;;;;;;;30.07;46.23;101772.28;5009306;28;20045;-61
2023/07/09 00:11:45;;;;;;;0.00;0.00;;;;;;;29.88;47.20;101769.09;5001207;28;20083;-63
2023/07/09 00:14:12;;;;;;;0.00;0.00;;;;;;;29.94;47.27;101770.53;5001674;28;20030;-61
2023/07/09 00:16:38;;;;;;;0.00;0.00;;;;;;;29.90;47.33;101766.78;5012805;28;20045;-61
2023/07/09 00:19:05;;;;;;;0.00;0.00;;;;;;;29.73;47.63;101773.22;5010505;28;20101;-62
2023/07/09 00:21:34;;;;;;;0.00;0.00;;;;;;;29.68;47.54;101767.03;4998750;28;20112;-60
2023/07/09 00:24:04;;;;;;;0.00;0.00;;;;;;;29.64;47.87;101769.63;5003519;28;20137;-62
2023/07/09 00:26:32;;;;;;;0.00;0.00;;;;;;;29.76;47.40;101766.22;5006616;28;20061;-61
2023/07/09 00:28:58;;;;;;;0.00;0.00;;;;;;;29.87;46.97;101767.47;4996145;28;20057;-62
2023/07/09 00:31:24;;;;;;;0.00;0.00;;;;;;;29.70;47.07;101760.00;5007906;28;20038;-63
2023/07/09 00:33:50;;;;;;;0.00;0.00;;;;;;;29.79;46.81;101762.78;5000587;28;20045;-62
2023/07/09 00:36:25;;;;;;;0.00;0.00;;;;;;;29.92;46.93;101758.97;5000618;28;20038;-62
2023/07/09 00:38:51;;;;;;;0.00;0.00;;;;;;;29.87;46.46;101759.97;5009547;28;20021;-63
2023/07/09 00:41:22;;;;;;;0.00;0.00;;;;;;;29.85;46.04;101755.91;4996759;28;20887;-61
2023/07/09 00:43:49;;;;;;;0.00;0.00;;;;;;;29.67;46.38;101755.13;5004110;28;20585;-62
2023/07/09 00:46:39;;;;;;;0.00;0.00;;;;;;;29.67;46.60;101762.63;5004155;28;20049;-61
2023/07/09 00:49:09;;;;;;;0.00;0.00;;;;;;;29.76;46.40;101760.69;5003339;28;20045;-61
2023/07/09 00:51:41;;;;;;;0.00;0.00;;;;;;;29.71;46.53;101763.59;5005753;28;20042;-61
2023/07/09 00:54:30;;;;;;;0.00;0.00;;;;;;;29.69;46.54;101760.34;5003095;28;20068;-60
2023/07/09 00:57:00;;;;;;;0.00;0.00;;;;;;;29.68;46.24;101767.03;5007864;28;20455;-63
2023/07/09 00:59:28;;;;;;;0.00;0.00;;;;;;;29.72;46.12;101759.72;5012059;28;20044;-61
2023/07/09 01:01:55;;;;;;;0.00;0.00;;;;;;;29.74;46.16;101762.97;5003083;28;20507;-62
2023/07/09 01:04:23;;;;;;;0.00;0.00;;;;;;;29.62;45.86;101760.84;5004779;28;20088;-62
2023/07/09 01:06:51;;;;;;;0.00;0.00;;;;;;;29.62;46.07;101760.84;4995827;28;20121;-61
2023/07/09 01:09:17;;;;;;;0.00;0.00;;;;;;;29.49;45.91;101767.41;5008061;28;20026;-62
2023/07/09 01:11:42;;;;;;;0.00;0.00;;;;;;;29.36;47.09;101763.69;5000013;28;20041;-62
2023/07/09 01:14:11;;;;;;;0.00;0.00;;;;;;;29.50;46.19;101761.53;5007013;28;20030;-61
2023/07/09 01:17:01;;;;;;;0.00;0.00;;;;;;;29.54;46.45;101764.47;5011669;28;20041;-62
2023/07/09 01:19:30;;;;;;;0.00;0.00;;;;;;;29.52;45.96;101762.00;4997326;28;20550;-60
2023/07/09 01:21:58;;;;;;;0.00;0.00;;;;;;;29.35;46.57;101762.06;5018853;28;20068;-60
2023/07/09 01:24:45;;;;;;;0.00;0.00;;;;;;;29.49;46.14;101762.69;5018226;28;20022;-63
2023/07/09 01:27:11;;;;;;;0.00;0.00;;;;;;;29.57;45.97;101765.75;5011220;28;20033;-61
2023/07/09 01:29:37;;;;;;;0.00;0.00;;;;;;;29.73;45.52;101766.88;5005108;28;20034;-63
2023/07/09 01:32:03;;;;;;;0.00;0.00;;;;;;;29.60;46.02;101765.09;5001996;28;20077;-63
2023/07/09 01:34:30;;;;;;;0.00;0.00;;;;;;;29.37;46.66;101756.19;4997784;28;20050;-61
2023/07/09 01:36:55;;;;;;;0.00;0.00;;;;;;;29.37;46.44;101757.00;5007753;28;20448;-61
2023/07/09 01:39:21;;;;;;;0.00;0.00;;;;;;;29.42;46.66;101758.78;4996346;28;20018;-61
2023/07/09 01:41:47;;;;;;;0.00;0.00;;;;;;;29.16;46.84;101761.59;5003642;28;20475;-61
2023/07/09 01:44:13;;;;;;;0.00;0.00;;;;;;;29.14;47.78;101763.88;5001784;28;20045;-61
2023/07/09 01:46:39;;;;;;;0.00;0.00;;;;;;;29.17;47.20;101762.44;5011465;28;20125;-61
2023/07/09 01:49:07;;;;;;;0.00;0.00;;;;;;;29.15;47.05;101771.03;5008816;28;20045;-62
2023/07/09 01:51:33;;;;;;;0.00;0.00;;;;;;;29.26;46.92;101766.00;4980883;28;20584;-61
2023/07/09 01:53:59;;;;;;;0.00;0.00;;;;;;;29.28;46.94;101770.06;5020875;28;20041;-63
2023/07/09 01:56:25;;;;;;;0.00;0.00;;;;;;;29.37;46.56;101773.63;5011064;28;20034;-62
2023/07/09 01:58:50;;;;;;;0.00;0.00;;;;;;;29.26;46.70;101761.28;4994596;28;20118;-62
2023/07/09 02:01:16;;;;;;;0.00;0.00;;;;;;;29.02;47.29;101760.94;5007094;28;20031;-61
2023/07/09 02:03:42;;;;;;;0.00;0.00;;;;;;;28.96;47.90;101764.19;4998896;28;20592;-62
2023/07/09 02:06:09;;;;;;;0.00;0.00;;;;;;;29.16;47.43;101769.91;5000090;28;20037;-61
2023/07/09 02:08:35;;;;;;;0.00;0.00;;;;;;;29.03;47.41;101765.31;5006432;28;20037;-61
2023/07/09 02:11:01;;;;;;;0.00;0.00;;;;;;;29.21;47.25;101772.50;4994806;28;20043;-61
2023/07/09 02:13:26;;;;;;;0.00;0.00;;;;;;;29.02;47.57;101776.72;5010639;28;20094;-63
2023/07/09 02:15:51;;;;;;;0.00;0.00;;;;;;;29.00;48.02;101776.22;5009778;28;20053;-62
2023/07/09 02:18:17;;;;;;;0.00;0.00;;;;;;;29.00;47.80;101773.47;4992628;28;20592;-62
2023/07/09 02:20:42;;;;;;;0.00;0.00;;;;;;;29.01;47.88;101775.91;4995459;28;20039;-61
2023/07/09 02:23:08;;;;;;;0.00;0.00;;;;;;;29.04;48.10;101774.44;5006856;28;20053;-62
2023/07/09 02:25:34;;;;;;;0.00;0.00;;;;;;;28.87;48.78;101779.97;4997051;28;20033;-62
2023/07/09 02:27:59;;;;;;;0.00;0.00;;;;;;;29.03;47.71;101773.63;5000966;28;20163;-61
2023/07/09 02:30:25;;;;;;;0.00;0.00;;;;;;;29.01;48.60;101780.66;5004306;28;20557;-62
2023/07/09 02:32:50;;;;;;;0.00;0.00;;;;;;;29.12;47.23;101773.63;4995015;28;20102;-62
2023/07/09 02:35:16;;;;;;;0.00;0.00;;;;;;;28.88;47.76;101781.59;5006757;28;20549;-63
2023/07/09 02:37:41;;;;;;;0.00;0.00;;;;;;;29.13;47.51;101791.88;4998020;28;20034;-61
2023/07/09 02:40:09;;;;;;;0.00;0.00;;;;;;;29.00;47.72;101784.53;4999925;28;20042;-62
2023/07/09 02:42:35;;;;;;;0.00;0.00;;;;;;;29.20;47.83;101781.97;5005327;28;20045;-63
2023/07/09 02:45:00;;;;;;;0.00;0.00;;;;;;;29.16;47.51;101782.94;5008993;28;20034;-62
2023/07/09 02:47:25;;;;;;;0.00;0.00;;;;;;;29.28;47.47;101783.91;4995883;28;20386;-62
2023/07/09 02:49:51;;;;;;;0.00;0.00;;;;;;;29.23;46.82;101784.06;5018132;28;20042;-62
2023/07/09 02:52:16;;;;;;;0.00;0.00;;;;;;;29.34;47.40;101787.31;5003484;28;20037;-60
2023/07/09 02:54:42;;;;;;;0.00;0.00;;;;;;;29.45;47.37;101785.81;5010419;28;20494;-62
2023/07/09 02:57:07;;;;;;;0.00;0.00;;;;;;;29.30;47.41;101789.94;5011209;28;20034;-61
2023/07/09 02:59:33;;;;;;;0.00;0.00;;;;;;;29.30;47.63;101786.34;5006491;28;20454;-62
2023/07/09 03:01:59;;;;;;;0.00;0.00;;;;;;;29.39;46.82;101779.66;5024478;28;20856;-62
2023/07/09 03:04:24;;;;;;;0.00;0.00;;;;;;;29.40;46.19;101784.03;4996437;28;20048;-61
2023/07/09 03:06:50;;;;;;;0.00;0.00;;;;;;;29.34;46.18;101781.78;4997987;28;20035;-62
2023/07/09 03:09:15;;;;;;;0.00;0.00;;;;;;;29.50;46.40;101774.59;5010400;28;20403;-61
2023/07/09 03:11:41;;;;;;;0.00;0.00;;;;;;;29.59;46.04;101774.53;5002409;28;20030;-62
2023/07/09 03:14:06;;;;;;;0.00;0.00;;;;;;;29.52;45.62;101773.09;5009893;28;20042;-61
2023/07/09 03:16:33;;;;;;;0.00;0.00;;;;;;;29.52;45.15;101775.06;5013377;28;20045;-61
2023/07/09 03:19:00;;;;;;;0.00;0.00;;;;;;;29.55;45.39;101776.34;5012212;28;20104;-61
2023/07/09 03:21:27;;;;;;;0.00;0.00;;;;;;;29.44;45.82;101782.22;4999107;28;20049;-62
2023/07/09 03:23:54;;;;;;;0.00;0.00;;;;;;;29.41;45.46;101782.91;5005129;28;20045;-61
2023/07/09 03:26:19;;;;;;;0.00;0.00;;;;;;;29.47;44.80;101784.34;5006323;28;20046;-62
2023/07/09 03:28:45;;;;;;;0.00;0.00;;;;;;;29.54;45.11;101792.16;4997894;28;20070;-62
2023/07/09 03:31:10;;;;;;;0.00;0.00;;;;;;;29.39;45.18;101799.03;5009883;28;20030;-61
2023/07/09 03:33:36;;;;;;;0.00;0.00;;;;;;;29.43;45.51;101794.47;5000382;28;20038;-60
2023/07/09 03:36:04;;;;;;;0.00;0.00;;;;;;;29.35;45.50;101791.69;5004205;28;20057;-62
2023/07/09 03:38:29;;;;;;;0.00;0.00;;;;;;;29.40;45.28;101788.78;5008548;28;20535;-60
2023/07/09 03:40:55;;;;;;;0.00;0.00;;;;;;;29.30;45.89;101791.88;5012408;28;20242;-63
2023/07/09 03:43:21;;;;;;;0.00;0.00;;;;;;;29.24;45.94;101791.25;4997677;28;20018;-61
2023/07/09 03:45:47;;;;;;;0.00;0.00;;;;;;;29.36;46.00;101788.63;5004287;28;20069;-61
2023/07/09 03:48:15;;;;;;;0.00;0.00;;;;;;;29.13;46.22;101783.56;5004389;28;20660;-62
2023/07/09 03:50:43;;;;;;;0.00;0.00;;;;;;;29.08;46.10;101784.53;5012858;28;20022;-61
2023/07/09 03:53:08;;;;;;;0.00;0.00;;;;;;;29.08;46.37;101792.84;4996247;28;20030;-63
2023/07/09 03:55:34;;;;;;;0.00;0.00;;;;;;;29.12;46.39;101796.59;5006105;28;20038;-62
2023/07/09 03:57:59;;;;;;;0.00;0.00;;;;;;;29.17;46.97;101799.22;5002567;28;20042;-61
2023/07/09 04:00:27;;;;;;;0.00;0.00;;;;;;;29.32;46.20;101797.91;4999659;28;20511;-60
2023/07/09 04:02:52;;;;;;;0.00;0.00;;;;;;;29.05;46.68;101801.78;5006961;28;20065;-61
2023/07/09 04:05:18;;;;;;;0.00;0.00;;;;;;;29.26;45.56;101801.97;5012301;28;20505;-62
2023/07/09 04:07:43;;;;;;;0.00;0.00;;;;;;;29.16;46.79;101805.91;5011502;28;20103;-60
2023/07/09 04:10:09;;;;;;;0.00;0.00;;;;;;;29.28;45.85;101799.69;5014573;28;20041;-61
2023/07/09 04:12:36;;;;;;;0.00;0.00;;;;;;;29.31;46.62;101810.13;5012505;28;20122;-60
2023/07/09 04:15:02;;;;;;;0.00;0.00;;;;;;;29.40;45.33;101810.94;5012347;28;20034;-62
2023/07/09 04:17:27;;;;;;;0.00;0.00;;;;;;;29.35;46.08;101814.69;5006917;28;20491;-63
2023/07/09 04:19:53;;;;;;;0.00;0.00;;;;;;;29.52;45.55;101810.25;4983649;28;20107;-62
2023/07/09 04:22:18;;;;;;;0.00;0.00;;;;;;;29.31;46.40;101805.41;4999392;28;20062;-60
2023/07/09 04:24:44;;;;;;;0.00;0.00;;;;;;;29.19;47.06;101812.72;5008239;28;20502;-60
2023/07/09 04:27:09;;;;;;;0.00;0.00;;;;;;;29.24;47.04;101812.56;4996622;28;20017;-62
2023/07/09 04:29:35;;;;;;;0.00;0.00;;;;;;;29.31;46.61;101812.88;5013279;28;20038;-62
2023/07/09 04:32:02;;;;;;;0.00;0.00;;;;;;;29.40;46.40;101808.97;5002838;28;20041;-61
2023/07/09 04:34:28;;;;;;;0.00;0.00;;;;;;;29.47;46.09;101808.47;5006417;28;20042;-61
2023/07/09 04:36:53;;;;;;;0.00;0.00;;;;;;;30.67;42.89;101808.00;5012703;28;20034;-63
2023/07/09 04:39:18;;;;;;;0.00;0.00;;;;;;;30.79;42.27;101805.31;5012979;28;20041;-61
2023/07/09 04:41:44;;;;;;;0.00;0.00;;;;;;;30.95;42.19;101812.75;5005515;28;20030;-62
2023/07/09 04:44:09;;;;;;;0.00;0.00;;;;;;;31.16;41.40;101810.75;5003519;28;20033;-61
2023/07/09 04:46:35;;;;;;;0.00;0.00;;;;;;;31.06;42.22;101813.94;5012295;28;20050;-62
2023/07/09 04:49:00;;;;;;;0.00;0.00;;;;;;;31.10;41.56;101814.91;5010525;28;20489;-62
2023/07/09 04:51:26;;;;;;;0.00;0.00;;;;;;;30.93;42.63;101820.59;4998175;28;20040;-62
2023/07/09 04:53:51;;;;;;;0.00;0.00;;;;;;;30.81;42.32;101820.50;5012534;28;20038;-61
2023/07/09 04:56:18;;;;;;;0.00;0.00;;;;;;;30.76;42.77;101817.09;5012306;28;20076;-62
2023/07/09 04:58:43;;;;;;;0.00;0.00;;;;;;;31.13;41.91;101818.97;5012269;28;20152;-62
2023/07/09 05:01:09;;;;;;;0.00;0.00;;;;;;;31.12;41.56;101814.53;4995697;28;20030;-60
2023/07/09 05:03:34;;;;;;;0.00;0.00;;;;;;;31.14;41.46;101818.63;5005890;28;20045;-61
2023/07/09 05:05:59;;;;;;;0.00;0.00;;;;;;;31.28;41.25;101809.19;5002831;28;20827;-63
2023/07/09 05:08:25;;;;;;;0.00;0.00;;;;;;;30.84;42.84;101819.84;4981217;28;20077;-61
2023/07/09 05:10:51;;;;;;;0.00;0.00;;;;;;;30.99;41.97;101819.25;5008832;28;20034;-62
2023/07/09 05:13:17;;;;;;;0.00;0.00;;;;;;;31.05;42.39;101826.22;5000603;28;20032;-62
2023/07/09 05:15:45;;;;;;;0.00;0.00;;;;;;;31.18;41.98;101825.13;5017519;28;20037;-62
2023/07/09 05:18:12;;;;;;;0.00;0.00;;;;;;;31.14;41.87;101823.34;5020074;28;20048;-61
2023/07/09 05:20:38;;;;;;;0.00;0.00;;;;;;;31.11;42.16;101822.06;5012039;28;20363;-62
2023/07/09 05:23:03;;;;;;;0.00;0.00;;;;;;;31.10;42.01;101819.63;4995185;28;20113;-62
2023/07/09 05:25:29;;;;;;;0.00;0.00;;;;;;;31.16;41.53;101821.06;5006050;28;20049;-61
2023/07/09 05:27:54;;;;;;;0.00;0.00;;;;;;;31.27;41.75;101813.13;4983641;28;20041;-62
2023/07/09 05:30:20;;;;;;;0.00;0.00;;;;;;;31.17;42.07;101820.69;4998966;28;20757;-60
2023/07/09 05:32:46;;;;;;;0.00;0.00;;;;;;;31.33;42.18;101815.31;5008527;28;20021;-62
2023/07/09 05:35:11;;;;;;;0.00;0.00;;;;;;;31.22;42.11;101816.91;5007859;28;20089;-61
2023/07/09 05:37:37;;;;;;;0.00;0.00;;;;;;;31.47;41.57;101817.88;4998411;28;20057;-63
2023/07/09 05:40:07;;;;;;;0.00;0.00;;;;;;;31.44;41.75;101819.34;5001149;28;20092;-61
2023/07/09 05:42:33;;;;;;;;;;;;;;;31.97;40.23;101819.28;5009638;28;20044;-62
2023/07/09 05:44:58;;;;;;;0.00;0.00;;;;;;;31.70;41.40;101819.09;5010158;28;20000;-62
2023/07/09 05:47:24;;;;;;;0.00;0.00;;;;;;;31.70;41.40;101827.44;4995442;28;20038;-60
2023/07/09 05:49:50;;;;;;;0.00;0.00;;;;;;;31.67;41.86;101826.13;5011116;28;20046;-62
2023/07/09 05:52:20;;;;;;;0.00;0.00;;;;;;;31.64;41.56;101828.81;4998868;28;20041;-60
2023/07/09 05:54:46;;;;;;;;;;;;;;;31.71;41.73;101837.38;5007934;28;20554;-61
2023/07/09 05:57:12;;;;;;;0.00;0.00;;;;;;;31.84;40.79;101841.81;5007817;28;19975;-63
2023/07/09 05:59:37;;;;;;;0.00;0.00;;;;;;;31.81;40.93;101834.16;5008073;28;20017;-61
2023/07/09 06:02:03;;;;;;;0.00;0.00;;;;;;;31.93;40.77;101832.25;5010904;28;20030;-62
2023/07/09 06:04:30;;;;;;;0.00;0.00;;;;;;;32.00;41.43;101831.66;5007818;28;20045;-59
2023/07/09 06:06:56;;;;;;;0.00;0.00;;;;;;;32.10;40.70;101834.00;5006826;28;20113;-62
2023/07/09 06:09:22;;;;;;;0.00;0.00;;;;;;;32.25;40.56;101841.69;5006159;28;20106;-61
2023/07/09 06:11:47;;;;;;;0.00;0.00;;;;;;;32.17;41.05;101837.03;5008282;28;20105;-61
2023/07/09 06:14:13;;;;;;;0.00;0.00;;;;;;;31.99;41.14;101835.63;5009802;28;20088;-60
2023/07/09 06:16:38;;;;;;;0.00;0.00;;;;;;;32.31;40.87;101845.03;5011518;28;20509;-62
2023/07/09 06:19:03;;;;;;;0.00;0.00;;;;;;;32.37;40.63;101843.66;5004825;28;20033;-61
2023/07/09 06:21:29;;;;;;;0.00;0.00;;;;;;;32.36;40.78;101848.41;5007509;28;20099;-63
2023/07/09 06:23:54;;;;;;;0.00;0.00;;;;;;;32.51;41.13;101846.94;5007924;28;20044;-61
2023/07/09 06:26:20;;;;;;;0.00;0.00;;;;;;;32.69;40.25;101851.06;5007457;28;20049;-63
2023/07/09 06:28:46;;;;;;;0.00;0.00;;;;;;;32.61;40.86;101852.81;5010146;28;20050;-60
2023/07/09 06:31:12;;;;;;;0.00;0.00;;;;;;;32.49;41.11;101847.25;5004555;28;20037;-62
2023/07/09 06:33:37;;;;;;;0.00;0.00;;;;;;;32.41;41.39;101859.28;5007381;28;20042;-62
2023/07/09 06:36:04;;;;;;;0.00;0.00;;;;;;;32.52;40.64;101854.09;5010666;28;20486;-60
2023/07/09 06:38:29;;;;;;;0.00;0.00;;;;;;;32.52;41.03;101854.09;5009762;28;20128;-62
2023/07/09 06:40:56;;;;;;;0.00;0.00;;;;;;;32.71;40.06;101854.31;5009480;28;20084;-62
2023/07/09 06:43:22;;;;;;;0.00;0.00;;;;;;;32.77;40.64;101858.47;5006085;28;20022;-62
2023/07/09 06:46:08;;;;;;;0.00;0.00;;;;;;;33.03;39.53;101858.94;5007299;28;20041;-60
2023/07/09 06:48:34;;;;;;;0.00;0.00;;;;;;;33.20;39.42;101858.66;5007321;28;20472;-62
2023/07/09 06:51:00;;;;;;;0.00;0.00;;;;;;;33.16;39.50;101857.72;5009770;28;20022;-63
2023/07/09 06:53:26;;;;;;;0.00;0.00;;;;;;;33.25;39.53;101865.94;5009303;28;20033;-62
2023/07/09 06:55:55;;;;;;;0.00;0.00;;;;;;;33.36;39.11;101872.63;5007287;28;20041;-60
2023/07/09 06:58:21;;;;;;;0.00;0.00;;;;;;;33.43;39.27;101868.09;5009636;28;20474;-61
2023/07/09 07:00:49;;;;;;;0.00;0.00;;;;;;;33.55;39.18;101861.69;5007287;28;20437;-62
2023/07/09 07:03:14;;;;;;;0.00;0.00;;;;;;;33.64;39.14;101860.38;5007190;28;20029;-61
2023/07/09 07:05:49;;;;;;;0.00;0.00;;;;;;;33.92;38.59;101863.09;5007449;28;20042;-61
2023/07/09 07:08:16;;;;;;;0.00;0.00;;;;;;;33.90;38.71;101864.63;5009542;28;20061;-60
2023/07/09 07:10:42;;;;;;;0.00;0.00;;;;;;;33.98;38.93;101863.69;5007451;28;20033;-59
2023/07/09 07:13:08;;;;;;;0.00;0.00;;;;;;;34.03;38.80;101861.44;5006727;28;20490;-59
2023/07/09 07:15:33;;;;;;;0.00;0.00;;;;;;;34.09;38.50;101864.75;5010863;28;20042;-61
2023/07/09 07:17:58;;;;;;;0.00;0.00;;;;;;;34.22;38.19;101858.72;5007498;28;20025;-62
2023/07/09 07:20:24;;;;;;;0.00;0.00;;;;;;;34.43;37.83;101852.88;5007132;28;20088;-58
2023/07/09 07:22:49;;;;;;;0.00;0.00;;;;;;;34.23;39.11;101856.75;5002223;28;20537;-61
2023/07/09 07:25:15;;;;;;;0.00;0.00;;;;;;;34.39;38.25;101852.78;5005880;28;20038;-61
2023/07/09 07:27:41;;;;;;;0.00;0.00;;;;;;;34.48;38.06;101861.81;5008090;28;20048;-61
2023/07/09 07:30:08;;;;;;;0.00;0.00;;;;;;;34.51;38.05;101857.47;5011096;28;20117;-59
2023/07/09 07:32:36;;;;;;;0.00;0.00;;;;;;;34.55;38.04;101852.78;5005065;28;20026;-61
2023/07/09 07:35:02;;;;;;;0.00;0.00;;;;;;;34.52;38.38;101856.28;5007883;28;20048;-60
2023/07/09 07:37:27;;;;;;;0.00;0.00;;;;;;;34.49;38.53;101854.25;5024076;28;20132;-59
2023/07/09 07:39:53;;;;;;;0.00;0.00;;;;;;;34.58;38.12;101857.63;5007026;28;20026;-60
2023/07/09 07:42:19;;;;;;;0.00;0.00;;;;;;;34.75;38.27;101859.25;5010120;28;20045;-61
2023/07/09 07:44:44;;;;;;;0.00;0.00;;;;;;;34.79;37.97;101858.13;5008188;28;20029;-59
2023/07/09 07:47:11;;;;;;;0.00;0.00;;;;;;;34.95;37.45;101864.47;5010155;28;20177;-59
2023/07/09 07:49:37;;;;;;;0.00;0.00;;;;;;;35.14;37.24;101856.16;5012838;28;20672;-60
2023/07/09 07:52:03;;;;;;;0.00;0.00;;;;;;;35.15;37.49;101863.38;5012664;28;20080;-62
2023/07/09 07:54:29;;;;;;;0.00;0.00;;;;;;;35.24;37.58;101868.75;5013088;28;20073;-61
2023/07/09 07:56:54;;;;;;;0.00;0.00;;;;;;;35.20;37.80;101871.44;5012714;28;20022;-60
2023/07/09 07:59:20;;;;;;;0.00;0.00;;;;;;;35.61;36.49;101864.34;4997642;28;20380;-60
2023/07/09 08:01:45;;;;;;;0.00;0.00;;;;;;;35.44;37.33;101870.34;5005445;28;20038;-60
2023/07/09 08:04:10;;;;;;;0.00;0.00;;;;;;;35.60;37.75;101861.91;5004105;28;20033;-59
2023/07/09 08:06:36;;;;;;;0.00;0.00;;;;;;;35.76;36.69;101866.22;5012978;28;20517;-60
2023/07/09 08:09:01;;;;;;;0.00;0.00;;;;;;;35.96;36.27;101864.22;5011165;28;20037;-60
2023/07/09 08:11:29;;;;;;;0.00;0.00;;;;;;;36.06;36.37;101858.81;4999069;28;20041;-61
2023/07/09 08:13:55;;;;;;;0.00;0.00;;;;;;;36.11;36.81;101849.28;5012565;28;20037;-62
2023/07/09 08:16:20;;;;;;;0.00;0.00;;;;;;;36.06;36.39;101853.22;5023354;28;20489;-61
2023/07/09 08:18:46;;;;;;;0.00;0.00;;;;;;;35.98;36.13;101842.25;5016184;28;20045;-60
2023/07/09 08:21:11;;;;;;;0.00;0.00;;;;;;;36.23;35.59;101848.28;5012597;28;20033;-59
2023/07/09 08:23:36;;;;;;;0.00;0.00;;;;;;;36.37;36.11;101854.91;5006062;28;20054;-59
2023/07/09 08:26:03;;;;;;;0.00;0.00;;;;;;;36.28;36.14;101848.78;5003064;28;20507;-60
2023/07/09 08:28:32;;;;;;;0.00;0.00;;;;;;;35.82;37.49;101861.13;4999112;28;20042;-59
2023/07/09 08:30:57;;;;;;;0.00;0.00;;;;;;;35.48;38.18;101850.88;4996896;28;20045;-59
2023/07/09 08:33:23;;;;;;;0.00;0.00;;;;;;;35.74;37.96;101856.56;5007696;28;20066;-62
2023/07/09 08:35:50;;;;;;;0.00;0.00;;;;;;;36.12;37.72;101850.91;5015952;28;20064;-60
2023/07/09 08:38:16;;;;;;;0.00;0.00;;;;;;;36.27;37.17;101847.16;5012175;28;20034;-57
2023/07/09 08:40:48;;;;;;;0.00;0.00;;;;;;;36.50;36.88;101858.38;5012280;28;20147;-61
2023/07/09 08:43:23;;;;;;;0.00;0.00;;;;;;;36.90;35.87;101861.38;5012266;28;20029;-60
2023/07/09 08:46:27;;;;;;;0.00;0.00;;;;;;;36.97;35.58;101851.06;5011874;28;20052;-58
2023/07/09 08:48:54;;;;;;;0.00;0.00;;;;;;;36.82;35.87;101856.81;4931721;29;20044;-61
2023/07/09 08:51:32;;;;;;;0.00;0.00;;;;;;;36.09;37.67;101858.06;4931884;29;20177;-59
2023/07/09 08:53:59;;;;;;;0.00;0.00;;;;;;;36.43;36.52;101861.03;4931557;29;20516;-59
2023/07/09 08:56:27;;;;;;;0.00;0.00;;;;;;;36.81;35.52;101858.84;4931716;29;20036;-62
2023/07/09 08:58:55;;;;;;;0.00;0.00;;;;;;;36.59;35.77;101868.09;4915963;29;20043;-62
2023/07/09 09:01:26;;;;;;;0.00;0.00;;;;;;;36.25;35.40;101855.13;4931725;29;20583;-61
2023/07/09 09:03:58;;;;;;;0.00;0.00;;;;;;;36.76;34.66;101870.34;4931512;29;20036;-61
2023/07/09 09:06:29;;;;;;;0.00;0.00;;;;;;;35.79;36.48;101867.47;4931575;29;20067;-62
2023/07/09 09:09:29;;;;;;;0.00;0.00;;;;;;;36.56;35.13;101862.47;4931840;29;20024;-59
2023/07/09 09:12:03;;;;;;;0.00;0.00;;;;;;;36.59;34.55;101865.31;4875078;29;20041;-59
2023/07/09 09:14:36;;;;;;;0.00;0.00;;;;;;;37.22;33.78;101859.00;4874409;29;20045;-60
2023/07/09 09:17:09;;;;;;;0.00;0.00;;;;;;;36.67;33.89;101853.03;4873162;29;20037;-61
2023/07/09 09:20:07;;;;;;;0.00;0.00;;;;;;;36.95;34.59;101852.66;4874325;29;20529;-61
2023/07/09 09:22:40;;;;;;;0.00;0.00;;;;;;;38.01;32.31;101849.09;4874206;29;20227;-59
2023/07/09 09:25:20;;;;;;;0.00;0.00;;;;;;;37.82;31.08;101854.91;4887817;29;20031;-58
2023/07/09 09:27:45;;;;;;;0.00;0.00;;;;;;;37.77;31.55;101856.09;4931341;29;20163;-59
2023/07/09 09:30:17;;;;;;;0.00;0.00;;;;;;;37.89;32.18;101849.38;4928259;29;20039;-60
2023/07/09 09:32:45;;;;;;;0.00;0.00;;;;;;;37.78;31.79;101852.09;4931582;29;20107;-60
2023/07/09 09:35:14;;;;;;;0.00;0.00;;;;;;;37.74;31.72;101856.03;4930678;29;20044;-60
2023/07/09 09:37:39;;;;;;;0.00;0.00;;;;;;;38.76;30.65;101847.72;4914339;29;20058;-59
2023/07/09 09:40:08;;;;;;;0.00;0.00;;;;;;;39.00;30.28;101841.41;4930750;29;20036;-60
2023/07/09 09:42:33;;;;;;;0.00;0.00;;;;;;;38.94;30.78;101845.81;4931212;29;20051;-61
2023/07/09 09:45:01;;;;;;;0.00;0.00;;;;;;;39.08;30.07;101845.84;4931720;29;20028;-60
2023/07/09 09:47:30;;;;;;;0.00;0.00;;;;;;;38.87;30.50;101840.13;4940763;28;20054;-60
2023/07/09 09:49:55;;;;;;;0.00;0.00;;;;;;;39.60;30.24;101827.59;5016417;28;20037;-63
2023/07/09 09:52:28;;;;;;;0.00;0.00;;;;;;;39.40;30.93;101827.09;5017162;28;20084;-61
2023/07/09 09:55:09;;;;;;;0.00;0.00;;;;;;;39.74;30.72;101834.06;5013332;28;20083;-60
2023/07/09 09:57:35;;;;;;;0.00;0.00;;;;;;;40.15;29.30;101832.50;5010215;28;20063;-61
2023/07/09 10:00:00;;;;;;;0.00;0.00;;;;;;;40.16;29.28;101827.66;5011313;28;20380;-61
2023/07/09 10:02:25;;;;;;;0.00;0.00;;;;;;;40.33;28.50;101822.03;5008415;28;20030;-61
2023/07/09 10:04:51;;;;;;;0.00;0.00;;;;;;;39.92;28.39;101826.41;5008086;28;20033;-61
2023/07/09 10:07:58;;;;;;;0.00;0.00;;;;;;;40.44;28.09;101821.19;5008754;28;20049;-60
2023/07/09 10:10:28;;;;;;;0.00;0.00;;;;;;;40.81;27.71;101821.53;5007920;28;20120;-61
2023/07/09 10:13:28;;;;;;;0.00;0.00;;;;;;;41.20;27.27;101829.84;5008622;28;20040;-60
2023/07/09 10:16:16;;;;;;;0.00;0.00;;;;;;;40.71;28.24;101828.00;5008154;28;20037;-61
2023/07/09 10:18:44;;;;;;;0.00;0.00;;;;;;;41.13;27.31;101825.84;5007961;28;20446;-60
2023/07/09 10:21:57;;;;;;;0.00;0.00;;;;;;;41.20;26.68;101827.88;5009516;28;20149;-61
2023/07/09 10:24:34;;;;;;;0.00;0.00;;;;;;;41.31;26.58;101830.63;5008697;28;20050;-60
2023/07/09 10:27:44;;;;;;;0.00;0.00;;;;;;;41.24;26.05;101830.69;5008149;28;20128;-61
2023/07/09 10:30:27;;;;;;;0.00;0.00;;;;;;;41.08;26.47;101840.38;4917601;29;20066;-60
2023/07/09 10:33:27;;;;;;;0.00;0.00;;;;;;;41.55;25.39;101829.69;4929544;29;20032;-59
2023/07/09 10:36:20;;;;;;;0.00;0.00;;;;;;;41.07;26.29;101821.84;4911430;29;20055;-63
2023/07/09 10:38:54;;;;;;;0.00;0.00;;;;;;;41.83;24.84;101824.66;4910200;29;20044;-61
2023/07/09 10:41:22;;;;;;;0.00;0.00;;;;;;;41.76;25.29;101816.25;4910056;29;20044;-60
2023/07/09 10:43:54;;;;;;;0.00;0.00;;;;;;;41.76;24.62;101806.97;4911294;29;20040;-63
2023/07/09 10:46:26;;;;;;;0.00;0.00;;;;;;;41.91;24.58;101802.78;4910012;29;20056;-60
2023/07/09 10:48:54;;;;;;;0.00;0.00;;;;;;;41.57;25.44;101799.81;4911260;29;20465;-63
2023/07/09 10:51:19;;;;;;;0.00;0.00;;;;;;;40.72;25.96;101790.94;4910744;29;20757;-62
2023/07/09 10:53:50;;;;;;;0.00;0.00;;;;;;;41.61;25.40;101792.16;4911054;28;20044;-62
2023/07/09 10:56:29;;;;;;;0.00;0.00;;;;;;;41.78;25.63;101799.69;4910635;29;20249;-61
2023/07/09 10:59:08;;;;;;;0.00;0.00;;;;;;;41.66;26.24;101791.72;4910322;29;20048;-62
2023/07/09 11:01:39;;;;;;;0.00;0.00;;;;;;;41.70;26.15;101792.50;4925365;29;20111;-62
2023/07/09 11:04:10;;;;;;;0.00;0.00;;;;;;;41.61;25.73;101799.78;4929622;29;20117;-62
2023/07/09 11:06:43;;;;;;;0.00;0.00;;;;;;;42.13;25.56;101798.59;4929748;29;20040;-63
2023/07/09 11:09:26;;;;;;;0.00;0.00;;;;;;;42.53;25.21;101791.34;4910652;29;20047;-64
2023/07/09 11:11:56;;;;;;;0.00;0.00;;;;;;;42.19;25.59;101781.97;4964278;28;20045;-61
2023/07/09 11:14:33;;;;;;;0.00;0.00;;;;;;;42.69;24.90;101783.09;4991508;28;20031;-62
2023/07/09 11:17:00;;;;;;;0.00;0.00;;;;;;;42.27;23.67;101777.88;5010872;28;20038;-63
2023/07/09 11:19:26;;;;;;;0.00;0.00;;;;;;;42.78;23.37;101777.72;5013199;28;20681;-61
2023/07/09 11:22:04;;;;;;;0.00;0.00;;;;;;;42.34;24.03;101778.59;4995321;28;20114;-61
2023/07/09 11:24:55;;;;;;;0.00;0.00;;;;;;;41.94;23.74;101785.84;5012919;28;20042;-62
2023/07/09 11:27:27;;;;;;;0.00;0.00;;;;;;;42.50;24.08;101786.53;4948143;29;20166;-62
2023/07/09 11:30:00;;;;;;;0.00;0.00;;;;;;;42.15;23.47;101798.97;4950767;29;20043;-62
2023/07/09 11:32:27;;;;;;;0.00;0.00;;;;;;;43.05;22.37;101798.41;4948063;29;20044;-64
2023/07/09 11:34:53;;;;;;;0.00;0.00;;;;;;;42.91;22.62;101795.78;4950343;29;20039;-62